sensor_id;sensor_type;location;lat;lon;timestamp;P1;durP1;ratioP1;P2;durP2;ratioP2
74624;SDS011;63131;52.298;8.056;2023-08-20T00:01:44;9.02;;;4.13;;
74624;SDS011;63131;52.298;8.056;2023-08-20T00:04:09;9.75;;;4.03;;
74624;SDS011;63131;52.298;8.056;2023-08-20T00:06:35;9.25;;;4.10;;
74624;SDS011;63131;52.298;8.056;2023-08-20T00:09:00;9.07;;;4.53;;
74624;SDS011;63131;52.298;8.056;2023-08-20T00:11:25;10.67;;;3.93;;
74624;SDS011;63131;52.298;8.056;2023-08-20T00:13:50;9.87;;;4.17;;
74624;SDS011;63131;52.298;8.056;2023-08-20T00:16:15;9.80;;;4.07;;
74624;SDS011;63131;52.298;8.056;2023-08-20T00:18:41;9.68;;;4.05;;
74624;SDS011;63131;52.298;8.056;2023-08-20T00:21:06;10.02;;;3.80;;
74624;SDS011;63131;52.298;8.056;2023-08-20T00:23:32;8.10;;;3.58;;
74624;SDS011;63131;52.298;8.056;2023-08-20T00:25:57;9.93;;;4.25;;
74624;SDS011;63131;52.298;8.056;2023-08-20T00:28:22;10.68;;;4.10;;
74624;SDS011;63131;52.298;8.056;2023-08-20T00:30:47;8.80;;;4.27;;
74624;SDS011;63131;52.298;8.056;2023-08-20T00:33:14;9.57;;;4.05;;
74624;SDS011;63131;52.298;8.056;2023-08-20T00:35:39;8.32;;;3.85;;
74624;SDS011;63131;52.298;8.056;2023-08-20T00:38:04;8.07;;;4.03;;
74624;SDS011;63131;52.298;8.056;2023-08-20T00:40:30;10.80;;;4.00;;
74624;SDS011;63131;52.298;8.056;2023-08-20T00:42:55;9.77;;;3.75;;
74624;SDS011;63131;52.298;8.056;2023-08-20T00:45:21;9.23;;;4.38;;
74624;SDS011;63131;52.298;8.056;2023-08-20T00:47:47;7.63;;;3.55;;
74624;SDS011;63131;52.298;8.056;2023-08-20T00:50:13;9.38;;;3.92;;
74624;SDS011;63131;52.298;8.056;2023-08-20T00:52:38;9.15;;;4.03;;
74624;SDS011;63131;52.298;8.056;2023-08-20T00:55:07;9.47;;;3.60;;
74624;SDS011;63131;52.298;8.056;2023-08-20T00:57:34;10.07;;;4.18;;
74624;SDS011;63131;52.298;8.056;2023-08-20T00:59:59;9.65;;;4.10;;
74624;SDS011;63131;52.298;8.056;2023-08-20T01:02:24;9.30;;;4.00;;
74624;SDS011;63131;52.298;8.056;2023-08-20T01:04:50;8.90;;;3.17;;
74624;SDS011;63131;52.298;8.056;2023-08-20T01:07:24;8.40;;;3.70;;
74624;SDS011;63131;52.298;8.056;2023-08-20T01:10:08;8.45;;;3.78;;
74624;SDS011;63131;52.298;8.056;2023-08-20T01:12:39;9.02;;;3.58;;
74624;SDS011;63131;52.298;8.056;2023-08-20T01:15:04;9.18;;;3.97;;
74624;SDS011;63131;52.298;8.056;2023-08-20T01:17:29;8.35;;;3.40;;
74624;SDS011;63131;52.298;8.056;2023-08-20T01:19:55;8.87;;;3.97;;
74624;SDS011;63131;52.298;8.056;2023-08-20T01:30:21;10.65;;;3.92;;
74624;SDS011;63131;52.298;8.056;2023-08-20T01:32:48;10.63;;;4.20;;
74624;SDS011;63131;52.298;8.056;2023-08-20T01:35:15;8.77;;;3.35;;
74624;SDS011;63131;52.298;8.056;2023-08-20T01:37:41;10.05;;;3.28;;
74624;SDS011;63131;52.298;8.056;2023-08-20T01:40:06;7.53;;;3.80;;
74624;SDS011;63131;52.298;8.056;2023-08-20T01:42:32;12.07;;;3.90;;
74624;SDS011;63131;52.298;8.056;2023-08-20T01:44:57;9.10;;;4.00;;
74624;SDS011;63131;52.298;8.056;2023-08-20T01:47:23;10.17;;;3.83;;
74624;SDS011;63131;52.298;8.056;2023-08-20T01:49:48;10.07;;;4.03;;
74624;SDS011;63131;52.298;8.056;2023-08-20T01:52:13;7.40;;;3.60;;
74624;SDS011;63131;52.298;8.056;2023-08-20T01:54:38;9.50;;;3.97;;
74624;SDS011;63131;52.298;8.056;2023-08-20T01:57:03;8.90;;;3.33;;
74624;SDS011;63131;52.298;8.056;2023-08-20T01:59:29;11.40;;;4.17;;
74624;SDS011;63131;52.298;8.056;2023-08-20T02:01:54;7.13;;;3.20;;
74624;SDS011;63131;52.298;8.056;2023-08-20T02:04:19;8.10;;;3.40;;
74624;SDS011;63131;52.298;8.056;2023-08-20T02:06:44;7.83;;;3.50;;
74624;SDS011;63131;52.298;8.056;2023-08-20T02:09:09;7.67;;;3.50;;
74624;SDS011;63131;52.298;8.056;2023-08-20T02:11:35;7.93;;;3.40;;
74624;SDS011;63131;52.298;8.056;2023-08-20T02:14:01;8.90;;;3.80;;
74624;SDS011;63131;52.298;8.056;2023-08-20T02:16:26;8.23;;;3.28;;
74624;SDS011;63131;52.298;8.056;2023-08-20T02:18:51;8.00;;;3.03;;
74624;SDS011;63131;52.298;8.056;2023-08-20T02:21:17;8.70;;;3.60;;
74624;SDS011;63131;52.298;8.056;2023-08-20T02:23:42;8.47;;;3.37;;
74624;SDS011;63131;52.298;8.056;2023-08-20T02:26:07;7.50;;;3.53;;
74624;SDS011;63131;52.298;8.056;2023-08-20T02:28:32;7.77;;;3.67;;
74624;SDS011;63131;52.298;8.056;2023-08-20T02:30:57;9.37;;;3.53;;
74624;SDS011;63131;52.298;8.056;2023-08-20T02:33:25;8.73;;;3.88;;
74624;SDS011;63131;52.298;8.056;2023-08-20T02:35:50;11.83;;;3.53;;
74624;SDS011;63131;52.298;8.056;2023-08-20T02:38:15;7.87;;;2.77;;
74624;SDS011;63131;52.298;8.056;2023-08-20T02:40:41;7.93;;;3.07;;
74624;SDS011;63131;52.298;8.056;2023-08-20T02:43:06;9.52;;;3.15;;
74624;SDS011;63131;52.298;8.056;2023-08-20T02:45:31;7.83;;;2.83;;
74624;SDS011;63131;52.298;8.056;2023-08-20T02:47:57;9.20;;;3.28;;
74624;SDS011;63131;52.298;8.056;2023-08-20T02:50:22;9.73;;;3.60;;
74624;SDS011;63131;52.298;8.056;2023-08-20T02:52:47;8.40;;;3.17;;
74624;SDS011;63131;52.298;8.056;2023-08-20T02:55:12;8.63;;;3.07;;
74624;SDS011;63131;52.298;8.056;2023-08-20T02:57:37;8.93;;;3.27;;
74624;SDS011;63131;52.298;8.056;2023-08-20T03:00:03;10.80;;;3.30;;
74624;SDS011;63131;52.298;8.056;2023-08-20T03:02:29;7.60;;;3.13;;
74624;SDS011;63131;52.298;8.056;2023-08-20T03:04:55;9.53;;;4.13;;
74624;SDS011;63131;52.298;8.056;2023-08-20T03:07:21;7.97;;;3.33;;
74624;SDS011;63131;52.298;8.056;2023-08-20T03:09:46;8.43;;;2.75;;
74624;SDS011;63131;52.298;8.056;2023-08-20T03:12:12;7.57;;;3.00;;
74624;SDS011;63131;52.298;8.056;2023-08-20T03:14:37;7.23;;;3.20;;
74624;SDS011;63131;52.298;8.056;2023-08-20T03:17:02;7.70;;;3.57;;
74624;SDS011;63131;52.298;8.056;2023-08-20T03:19:29;6.82;;;2.70;;
74624;SDS011;63131;52.298;8.056;2023-08-20T03:21:54;9.02;;;3.33;;
74624;SDS011;63131;52.298;8.056;2023-08-20T03:24:20;6.97;;;2.60;;
74624;SDS011;63131;52.298;8.056;2023-08-20T03:26:45;6.40;;;2.58;;
74624;SDS011;63131;52.298;8.056;2023-08-20T03:29:12;7.75;;;3.55;;
74624;SDS011;63131;52.298;8.056;2023-08-20T03:31:37;8.60;;;3.10;;
74624;SDS011;63131;52.298;8.056;2023-08-20T03:34:02;9.70;;;3.07;;
74624;SDS011;63131;52.298;8.056;2023-08-20T03:36:28;8.87;;;2.60;;
74624;SDS011;63131;52.298;8.056;2023-08-20T03:38:53;8.37;;;3.57;;
74624;SDS011;63131;52.298;8.056;2023-08-20T03:41:18;8.40;;;3.00;;
74624;SDS011;63131;52.298;8.056;2023-08-20T03:43:43;9.05;;;2.70;;
74624;SDS011;63131;52.298;8.056;2023-08-20T03:46:08;12.00;;;3.43;;
74624;SDS011;63131;52.298;8.056;2023-08-20T03:48:34;7.50;;;3.00;;
74624;SDS011;63131;52.298;8.056;2023-08-20T03:50:59;6.83;;;3.13;;
74624;SDS011;63131;52.298;8.056;2023-08-20T03:53:24;8.47;;;3.17;;
74624;SDS011;63131;52.298;8.056;2023-08-20T03:55:49;8.03;;;3.00;;
74624;SDS011;63131;52.298;8.056;2023-08-20T03:58:15;7.87;;;3.17;;
74624;SDS011;63131;52.298;8.056;2023-08-20T04:00:40;9.95;;;3.10;;
74624;SDS011;63131;52.298;8.056;2023-08-20T04:03:05;6.30;;;2.37;;
74624;SDS011;63131;52.298;8.056;2023-08-20T04:05:35;7.50;;;2.50;;
74624;SDS011;63131;52.298;8.056;2023-08-20T04:08:00;8.18;;;2.60;;
74624;SDS011;63131;52.298;8.056;2023-08-20T04:10:25;8.67;;;2.60;;
74624;SDS011;63131;52.298;8.056;2023-08-20T04:12:51;9.57;;;2.70;;
74624;SDS011;63131;52.298;8.056;2023-08-20T04:15:16;9.63;;;3.13;;
74624;SDS011;63131;52.298;8.056;2023-08-20T04:17:41;7.50;;;2.90;;
74624;SDS011;63131;52.298;8.056;2023-08-20T04:20:06;7.67;;;3.37;;
74624;SDS011;63131;52.298;8.056;2023-08-20T04:22:34;8.98;;;2.95;;
74624;SDS011;63131;52.298;8.056;2023-08-20T04:24:59;9.13;;;3.17;;
74624;SDS011;63131;52.298;8.056;2023-08-20T04:27:24;9.60;;;3.65;;
74624;SDS011;63131;52.298;8.056;2023-08-20T04:29:49;8.30;;;3.40;;
74624;SDS011;63131;52.298;8.056;2023-08-20T04:32:16;8.18;;;3.28;;
74624;SDS011;63131;52.298;8.056;2023-08-20T04:34:41;9.35;;;3.50;;
74624;SDS011;63131;52.298;8.056;2023-08-20T04:37:06;8.00;;;3.63;;
74624;SDS011;63131;52.298;8.056;2023-08-20T04:39:33;8.45;;;3.78;;
74624;SDS011;63131;52.298;8.056;2023-08-20T04:41:58;9.13;;;4.17;;
74624;SDS011;63131;52.298;8.056;2023-08-20T04:44:26;9.45;;;3.90;;
74624;SDS011;63131;52.298;8.056;2023-08-20T04:46:51;9.85;;;3.83;;
74624;SDS011;63131;52.298;8.056;2023-08-20T04:49:16;10.30;;;4.63;;
74624;SDS011;63131;52.298;8.056;2023-08-20T04:51:41;10.13;;;4.60;;
74624;SDS011;63131;52.298;8.056;2023-08-20T04:54:08;12.70;;;4.30;;
74624;SDS011;63131;52.298;8.056;2023-08-20T04:56:33;10.13;;;3.90;;
74624;SDS011;63131;52.298;8.056;2023-08-20T04:58:58;8.37;;;4.03;;
74624;SDS011;63131;52.298;8.056;2023-08-20T05:01:23;9.30;;;3.70;;
74624;SDS011;63131;52.298;8.056;2023-08-20T05:03:50;9.17;;;3.20;;
74624;SDS011;63131;52.298;8.056;2023-08-20T05:06:15;7.05;;;2.85;;
74624;SDS011;63131;52.298;8.056;2023-08-20T05:08:40;9.43;;;4.10;;
74624;SDS011;63131;52.298;8.056;2023-08-20T05:11:05;7.50;;;3.50;;
74624;SDS011;63131;52.298;8.056;2023-08-20T05:13:31;8.20;;;3.13;;
74624;SDS011;63131;52.298;8.056;2023-08-20T05:15:56;6.90;;;2.97;;
74624;SDS011;63131;52.298;8.056;2023-08-20T05:18:21;7.87;;;3.10;;
74624;SDS011;63131;52.298;8.056;2023-08-20T05:20:46;8.27;;;3.87;;
74624;SDS011;63131;52.298;8.056;2023-08-20T05:23:11;8.30;;;3.30;;
74624;SDS011;63131;52.298;8.056;2023-08-20T05:25:37;8.90;;;3.70;;
74624;SDS011;63131;52.298;8.056;2023-08-20T05:28:02;7.63;;;3.50;;
74624;SDS011;63131;52.298;8.056;2023-08-20T05:30:28;8.50;;;3.28;;
74624;SDS011;63131;52.298;8.056;2023-08-20T05:32:53;8.57;;;3.67;;
74624;SDS011;63131;52.298;8.056;2023-08-20T05:35:18;8.90;;;3.33;;
74624;SDS011;63131;52.298;8.056;2023-08-20T05:37:43;10.37;;;4.00;;
74624;SDS011;63131;52.298;8.056;2023-08-20T05:40:08;10.63;;;3.63;;
74624;SDS011;63131;52.298;8.056;2023-08-20T05:42:35;9.93;;;4.13;;
74624;SDS011;63131;52.298;8.056;2023-08-20T05:45:01;10.77;;;4.22;;
74624;SDS011;63131;52.298;8.056;2023-08-20T05:47:26;11.43;;;3.90;;
74624;SDS011;63131;52.298;8.056;2023-08-20T05:49:51;10.70;;;3.90;;
74624;SDS011;63131;52.298;8.056;2023-08-20T05:52:16;9.83;;;4.07;;
74624;SDS011;63131;52.298;8.056;2023-08-20T05:54:42;9.17;;;4.00;;
74624;SDS011;63131;52.298;8.056;2023-08-20T05:57:07;9.07;;;3.97;;
74624;SDS011;63131;52.298;8.056;2023-08-20T05:59:32;8.80;;;3.97;;
74624;SDS011;63131;52.298;8.056;2023-08-20T06:01:57;9.43;;;3.72;;
74624;SDS011;63131;52.298;8.056;2023-08-20T06:04:22;11.00;;;3.67;;
74624;SDS011;63131;52.298;8.056;2023-08-20T06:06:48;8.87;;;3.63;;
74624;SDS011;63131;52.298;8.056;2023-08-20T06:09:13;12.00;;;4.20;;
74624;SDS011;63131;52.298;8.056;2023-08-20T06:11:38;9.55;;;3.70;;
74624;SDS011;63131;52.298;8.056;2023-08-20T06:14:03;9.53;;;3.47;;
74624;SDS011;63131;52.298;8.056;2023-08-20T06:16:28;10.80;;;4.40;;
74624;SDS011;63131;52.298;8.056;2023-08-20T06:18:54;12.10;;;4.23;;
74624;SDS011;63131;52.298;8.056;2023-08-20T06:21:19;8.93;;;4.03;;
74624;SDS011;63131;52.298;8.056;2023-08-20T06:23:44;10.13;;;3.77;;
74624;SDS011;63131;52.298;8.056;2023-08-20T06:26:09;9.17;;;3.53;;
74624;SDS011;63131;52.298;8.056;2023-08-20T06:28:34;9.17;;;3.53;;
74624;SDS011;63131;52.298;8.056;2023-08-20T06:31:00;10.23;;;4.03;;
74624;SDS011;63131;52.298;8.056;2023-08-20T06:33:25;8.90;;;3.40;;
74624;SDS011;63131;52.298;8.056;2023-08-20T06:35:50;10.77;;;3.97;;
74624;SDS011;63131;52.298;8.056;2023-08-20T06:38:15;8.90;;;3.97;;
74624;SDS011;63131;52.298;8.056;2023-08-20T06:40:40;8.63;;;3.50;;
74624;SDS011;63131;52.298;8.056;2023-08-20T06:43:06;7.63;;;3.37;;
74624;SDS011;63131;52.298;8.056;2023-08-20T06:45:31;8.80;;;3.60;;
74624;SDS011;63131;52.298;8.056;2023-08-20T06:47:56;8.57;;;4.07;;
74624;SDS011;63131;52.298;8.056;2023-08-20T06:50:22;8.70;;;3.45;;
74624;SDS011;63131;52.298;8.056;2023-08-20T06:52:48;9.27;;;3.78;;
74624;SDS011;63131;52.298;8.056;2023-08-20T06:55:13;11.13;;;3.75;;
74624;SDS011;63131;52.298;8.056;2023-08-20T06:57:38;10.07;;;3.78;;
74624;SDS011;63131;52.298;8.056;2023-08-20T07:00:04;8.63;;;3.53;;
74624;SDS011;63131;52.298;8.056;2023-08-20T07:02:30;10.60;;;4.57;;
74624;SDS011;63131;52.298;8.056;2023-08-20T07:04:55;9.50;;;3.80;;
74624;SDS011;63131;52.298;8.056;2023-08-20T07:07:20;7.63;;;3.43;;
74624;SDS011;63131;52.298;8.056;2023-08-20T07:09:45;10.60;;;3.77;;
74624;SDS011;63131;52.298;8.056;2023-08-20T07:12:10;8.73;;;3.87;;
74624;SDS011;63131;52.298;8.056;2023-08-20T07:14:36;9.97;;;4.07;;
74624;SDS011;63131;52.298;8.056;2023-08-20T07:17:01;7.80;;;3.60;;
74624;SDS011;63131;52.298;8.056;2023-08-20T07:19:27;8.75;;;3.50;;
74624;SDS011;63131;52.298;8.056;2023-08-20T07:21:53;9.43;;;4.65;;
74624;SDS011;63131;52.298;8.056;2023-08-20T07:24:18;10.67;;;4.03;;
74624;SDS011;63131;52.298;8.056;2023-08-20T07:26:43;9.77;;;4.40;;
74624;SDS011;63131;52.298;8.056;2023-08-20T07:29:09;10.30;;;4.10;;
74624;SDS011;63131;52.298;8.056;2023-08-20T07:31:34;10.60;;;4.35;;
74624;SDS011;63131;52.298;8.056;2023-08-20T07:34:01;10.80;;;4.13;;
74624;SDS011;63131;52.298;8.056;2023-08-20T07:36:26;9.73;;;3.90;;
74624;SDS011;63131;52.298;8.056;2023-08-20T07:38:54;10.57;;;4.93;;
74624;SDS011;63131;52.298;8.056;2023-08-20T07:41:20;10.43;;;4.65;;
74624;SDS011;63131;52.298;8.056;2023-08-20T07:43:45;8.73;;;4.10;;
74624;SDS011;63131;52.298;8.056;2023-08-20T07:46:11;9.45;;;4.07;;
74624;SDS011;63131;52.298;8.056;2023-08-20T07:48:36;11.35;;;5.35;;
74624;SDS011;63131;52.298;8.056;2023-08-20T07:51:02;9.83;;;4.63;;
74624;SDS011;63131;52.298;8.056;2023-08-20T07:53:28;11.57;;;6.07;;
74624;SDS011;63131;52.298;8.056;2023-08-20T07:55:53;9.70;;;4.50;;
74624;SDS011;63131;52.298;8.056;2023-08-20T07:58:18;10.73;;;5.20;;
74624;SDS011;63131;52.298;8.056;2023-08-20T08:00:43;11.10;;;4.90;;
74624;SDS011;63131;52.298;8.056;2023-08-20T08:03:08;13.50;;;5.60;;
74624;SDS011;63131;52.298;8.056;2023-08-20T08:05:34;9.93;;;5.03;;
74624;SDS011;63131;52.298;8.056;2023-08-20T08:08:00;11.02;;;5.50;;
74624;SDS011;63131;52.298;8.056;2023-08-20T08:10:25;10.77;;;5.57;;
74624;SDS011;63131;52.298;8.056;2023-08-20T08:12:50;10.93;;;5.97;;
74624;SDS011;63131;52.298;8.056;2023-08-20T08:15:15;9.00;;;5.17;;
74624;SDS011;63131;52.298;8.056;2023-08-20T08:17:40;11.47;;;6.10;;
74624;SDS011;63131;52.298;8.056;2023-08-20T08:20:06;9.63;;;5.53;;
74624;SDS011;63131;52.298;8.056;2023-08-20T08:22:31;10.20;;;5.93;;
74624;SDS011;63131;52.298;8.056;2023-08-20T08:24:56;12.20;;;6.00;;
74624;SDS011;63131;52.298;8.056;2023-08-20T08:27:21;10.27;;;6.43;;
74624;SDS011;63131;52.298;8.056;2023-08-20T08:29:47;11.40;;;6.63;;
74624;SDS011;63131;52.298;8.056;2023-08-20T08:32:12;9.48;;;6.05;;
74624;SDS011;63131;52.298;8.056;2023-08-20T08:34:37;10.90;;;5.83;;
74624;SDS011;63131;52.298;8.056;2023-08-20T08:37:02;10.85;;;6.25;;
74624;SDS011;63131;52.298;8.056;2023-08-20T08:39:28;10.95;;;5.80;;
74624;SDS011;63131;52.298;8.056;2023-08-20T08:41:54;10.03;;;5.70;;
74624;SDS011;63131;52.298;8.056;2023-08-20T08:44:22;12.23;;;5.72;;
74624;SDS011;63131;52.298;8.056;2023-08-20T08:46:48;12.63;;;5.75;;
74624;SDS011;63131;52.298;8.056;2023-08-20T08:49:14;11.23;;;6.13;;
74624;SDS011;63131;52.298;8.056;2023-08-20T08:51:40;9.90;;;5.47;;
74624;SDS011;63131;52.298;8.056;2023-08-20T08:54:07;14.13;;;5.78;;
74624;SDS011;63131;52.298;8.056;2023-08-20T08:56:32;8.77;;;4.70;;
74624;SDS011;63131;52.298;8.056;2023-08-20T08:58:57;10.37;;;5.60;;
74624;SDS011;63131;52.298;8.056;2023-08-20T09:01:23;10.00;;;4.80;;
74624;SDS011;63131;52.298;8.056;2023-08-20T09:03:48;9.50;;;5.50;;
74624;SDS011;63131;52.298;8.056;2023-08-20T09:06:13;10.17;;;5.67;;
74624;SDS011;63131;52.298;8.056;2023-08-20T09:08:38;8.63;;;4.95;;
74624;SDS011;63131;52.298;8.056;2023-08-20T09:11:04;10.47;;;5.47;;
74624;SDS011;63131;52.298;8.056;2023-08-20T09:13:36;11.43;;;5.43;;
74624;SDS011;63131;52.298;8.056;2023-08-20T09:16:08;11.68;;;4.72;;
74624;SDS011;63131;52.298;8.056;2023-08-20T09:18:40;9.05;;;4.70;;
74624;SDS011;63131;52.298;8.056;2023-08-20T09:21:09;8.82;;;5.30;;
74624;SDS011;63131;52.298;8.056;2023-08-20T09:23:34;9.73;;;5.18;;
74624;SDS011;63131;52.298;8.056;2023-08-20T09:26:01;8.73;;;5.00;;
74624;SDS011;63131;52.298;8.056;2023-08-20T09:28:27;12.10;;;4.28;;
74624;SDS011;63131;52.298;8.056;2023-08-20T09:30:56;10.87;;;5.57;;
74624;SDS011;63131;52.298;8.056;2023-08-20T09:33:21;9.48;;;4.97;;
74624;SDS011;63131;52.298;8.056;2023-08-20T09:35:51;9.93;;;4.30;;
74624;SDS011;63131;52.298;8.056;2023-08-20T09:38:19;9.75;;;4.18;;
74624;SDS011;63131;52.298;8.056;2023-08-20T09:40:44;8.70;;;4.22;;
74624;SDS011;63131;52.298;8.056;2023-08-20T09:43:09;9.75;;;4.93;;
74624;SDS011;63131;52.298;8.056;2023-08-20T09:45:35;9.35;;;5.05;;
74624;SDS011;63131;52.298;8.056;2023-08-20T09:48:02;8.38;;;4.80;;
74624;SDS011;63131;52.298;8.056;2023-08-20T09:50:30;8.55;;;4.68;;
74624;SDS011;63131;52.298;8.056;2023-08-20T09:53:03;9.30;;;4.50;;
74624;SDS011;63131;52.298;8.056;2023-08-20T09:55:32;8.90;;;4.10;;
74624;SDS011;63131;52.298;8.056;2023-08-20T09:57:59;10.05;;;4.32;;
74624;SDS011;63131;52.298;8.056;2023-08-20T10:00:25;8.20;;;4.65;;
74624;SDS011;63131;52.298;8.056;2023-08-20T10:02:52;10.13;;;4.60;;
74624;SDS011;63131;52.298;8.056;2023-08-20T10:05:17;9.43;;;4.70;;
74624;SDS011;63131;52.298;8.056;2023-08-20T10:07:45;8.00;;;4.13;;
74624;SDS011;63131;52.298;8.056;2023-08-20T10:10:11;8.95;;;4.82;;
74624;SDS011;63131;52.298;8.056;2023-08-20T10:12:38;8.00;;;3.90;;
74624;SDS011;63131;52.298;8.056;2023-08-20T10:15:07;9.30;;;4.68;;
74624;SDS011;63131;52.298;8.056;2023-08-20T10:17:33;8.55;;;4.03;;
74624;SDS011;63131;52.298;8.056;2023-08-20T10:19:58;9.55;;;4.57;;
74624;SDS011;63131;52.298;8.056;2023-08-20T10:24:58;9.13;;;4.80;;
74624;SDS011;63131;52.298;8.056;2023-08-20T10:27:26;10.68;;;4.90;;
74624;SDS011;63131;52.298;8.056;2023-08-20T10:29:53;9.77;;;4.65;;
74624;SDS011;63131;52.298;8.056;2023-08-20T10:32:18;8.98;;;4.90;;
74624;SDS011;63131;52.298;8.056;2023-08-20T10:34:49;8.77;;;4.57;;
74624;SDS011;63131;52.298;8.056;2023-08-20T10:37:15;8.65;;;4.55;;
74624;SDS011;63131;52.298;8.056;2023-08-20T10:39:40;9.30;;;4.15;;
74624;SDS011;63131;52.298;8.056;2023-08-20T10:45:01;8.63;;;4.10;;
74624;SDS011;63131;52.298;8.056;2023-08-20T10:47:36;8.55;;;4.28;;
74624;SDS011;63131;52.298;8.056;2023-08-20T10:50:02;9.50;;;4.63;;
74624;SDS011;63131;52.298;8.056;2023-08-20T10:52:27;8.15;;;4.25;;
74624;SDS011;63131;52.298;8.056;2023-08-20T10:54:52;9.67;;;4.53;;
74624;SDS011;63131;52.298;8.056;2023-08-20T10:57:18;9.43;;;4.80;;
74624;SDS011;63131;52.298;8.056;2023-08-20T10:59:55;9.90;;;4.72;;
74624;SDS011;63131;52.298;8.056;2023-08-20T11:02:20;10.05;;;4.60;;
74624;SDS011;63131;52.298;8.056;2023-08-20T11:04:46;9.60;;;5.68;;
74624;SDS011;63131;52.298;8.056;2023-08-20T11:07:11;10.73;;;4.47;;
74624;SDS011;63131;52.298;8.056;2023-08-20T11:09:42;9.88;;;4.60;;
74624;SDS011;63131;52.298;8.056;2023-08-20T11:12:07;8.18;;;4.35;;
74624;SDS011;63131;52.298;8.056;2023-08-20T11:14:32;8.17;;;4.00;;
74624;SDS011;63131;52.298;8.056;2023-08-20T11:16:57;8.47;;;4.30;;
74624;SDS011;63131;52.298;8.056;2023-08-20T11:19:23;8.00;;;4.23;;
74624;SDS011;63131;52.298;8.056;2023-08-20T11:21:48;8.43;;;4.50;;
74624;SDS011;63131;52.298;8.056;2023-08-20T11:24:14;12.85;;;4.50;;
74624;SDS011;63131;52.298;8.056;2023-08-20T11:26:40;8.90;;;5.00;;
74624;SDS011;63131;52.298;8.056;2023-08-20T11:29:06;8.00;;;3.95;;
74624;SDS011;63131;52.298;8.056;2023-08-20T11:31:31;8.93;;;4.80;;
74624;SDS011;63131;52.298;8.056;2023-08-20T11:33:56;8.13;;;4.33;;
74624;SDS011;63131;52.298;8.056;2023-08-20T11:36:22;8.65;;;4.57;;
74624;SDS011;63131;52.298;8.056;2023-08-20T11:38:51;9.55;;;4.55;;
74624;SDS011;63131;52.298;8.056;2023-08-20T11:41:20;8.18;;;4.47;;
74624;SDS011;63131;52.298;8.056;2023-08-20T11:43:46;7.25;;;4.28;;
74624;SDS011;63131;52.298;8.056;2023-08-20T11:46:15;9.82;;;4.35;;
74624;SDS011;63131;52.298;8.056;2023-08-20T11:48:59;8.98;;;4.65;;
74624;SDS011;63131;52.298;8.056;2023-08-20T11:51:28;9.20;;;4.60;;
74624;SDS011;63131;52.298;8.056;2023-08-20T11:53:53;9.55;;;4.63;;
74624;SDS011;63131;52.298;8.056;2023-08-20T11:56:18;8.47;;;4.20;;
74624;SDS011;63131;52.298;8.056;2023-08-20T11:58:49;10.20;;;4.57;;
74624;SDS011;63131;52.298;8.056;2023-08-20T12:01:14;9.80;;;4.82;;
74624;SDS011;63131;52.298;8.056;2023-08-20T12:03:40;8.43;;;4.03;;
74624;SDS011;63131;52.298;8.056;2023-08-20T12:06:20;9.67;;;4.50;;
74624;SDS011;63131;52.298;8.056;2023-08-20T12:08:47;10.00;;;5.45;;
74624;SDS011;63131;52.298;8.056;2023-08-20T12:11:12;11.02;;;4.97;;
74624;SDS011;63131;52.298;8.056;2023-08-20T12:13:38;9.00;;;5.13;;
74624;SDS011;63131;52.298;8.056;2023-08-20T12:16:03;9.40;;;4.63;;
74624;SDS011;63131;52.298;8.056;2023-08-20T12:18:28;9.63;;;4.53;;
74624;SDS011;63131;52.298;8.056;2023-08-20T12:20:54;9.25;;;4.30;;
74624;SDS011;63131;52.298;8.056;2023-08-20T12:23:20;7.70;;;4.00;;
74624;SDS011;63131;52.298;8.056;2023-08-20T12:25:49;9.18;;;4.85;;
74624;SDS011;63131;52.298;8.056;2023-08-20T12:28:14;9.65;;;5.25;;
74624;SDS011;63131;52.298;8.056;2023-08-20T12:30:39;9.10;;;4.40;;
74624;SDS011;63131;52.298;8.056;2023-08-20T12:33:05;8.63;;;3.58;;
74624;SDS011;63131;52.298;8.056;2023-08-20T12:35:31;7.93;;;4.82;;
74624;SDS011;63131;52.298;8.056;2023-08-20T12:37:56;7.90;;;4.40;;
74624;SDS011;63131;52.298;8.056;2023-08-20T12:40:21;8.23;;;4.67;;
74624;SDS011;63131;52.298;8.056;2023-08-20T12:42:47;8.77;;;4.30;;
74624;SDS011;63131;52.298;8.056;2023-08-20T12:45:12;10.40;;;4.80;;
74624;SDS011;63131;52.298;8.056;2023-08-20T12:47:38;8.57;;;4.40;;
74624;SDS011;63131;52.298;8.056;2023-08-20T12:50:03;7.60;;;4.43;;
74624;SDS011;63131;52.298;8.056;2023-08-20T12:52:29;9.40;;;4.88;;
74624;SDS011;63131;52.298;8.056;2023-08-20T12:54:54;8.52;;;4.63;;
74624;SDS011;63131;52.298;8.056;2023-08-20T12:57:19;8.90;;;4.63;;
74624;SDS011;63131;52.298;8.056;2023-08-20T12:59:45;7.63;;;4.40;;
74624;SDS011;63131;52.298;8.056;2023-08-20T13:02:10;8.33;;;4.43;;
74624;SDS011;63131;52.298;8.056;2023-08-20T13:04:35;7.53;;;4.03;;
74624;SDS011;63131;52.298;8.056;2023-08-20T13:07:01;7.97;;;4.43;;
74624;SDS011;63131;52.298;8.056;2023-08-20T13:09:26;8.90;;;4.63;;
74624;SDS011;63131;52.298;8.056;2023-08-20T13:11:52;8.68;;;4.20;;
74624;SDS011;63131;52.298;8.056;2023-08-20T13:14:18;8.88;;;4.95;;
74624;SDS011;63131;52.298;8.056;2023-08-20T13:16:43;7.88;;;4.78;;
74624;SDS011;63131;52.298;8.056;2023-08-20T13:19:09;7.97;;;4.63;;
74624;SDS011;63131;52.298;8.056;2023-08-20T13:21:34;7.78;;;3.72;;
74624;SDS011;63131;52.298;8.056;2023-08-20T13:23:59;7.07;;;3.67;;
74624;SDS011;63131;52.298;8.056;2023-08-20T13:26:24;8.43;;;4.20;;
74624;SDS011;63131;52.298;8.056;2023-08-20T13:28:49;8.13;;;3.83;;
74624;SDS011;63131;52.298;8.056;2023-08-20T13:31:15;7.78;;;3.83;;
74624;SDS011;63131;52.298;8.056;2023-08-20T13:33:40;8.07;;;3.70;;
74624;SDS011;63131;52.298;8.056;2023-08-20T13:36:05;7.40;;;3.90;;
74624;SDS011;63131;52.298;8.056;2023-08-20T13:38:32;7.70;;;3.60;;
74624;SDS011;63131;52.298;8.056;2023-08-20T13:40:57;7.13;;;3.30;;
74624;SDS011;63131;52.298;8.056;2023-08-20T13:43:22;7.45;;;3.70;;
74624;SDS011;63131;52.298;8.056;2023-08-20T13:45:48;7.45;;;3.50;;
74624;SDS011;63131;52.298;8.056;2023-08-20T13:48:13;7.45;;;4.00;;
74624;SDS011;63131;52.298;8.056;2023-08-20T13:50:39;7.03;;;4.03;;
74624;SDS011;63131;52.298;8.056;2023-08-20T13:53:04;7.30;;;3.13;;
74624;SDS011;63131;52.298;8.056;2023-08-20T13:55:29;7.37;;;3.37;;
74624;SDS011;63131;52.298;8.056;2023-08-20T13:57:56;7.40;;;3.20;;
74624;SDS011;63131;52.298;8.056;2023-08-20T14:00:21;7.97;;;3.57;;
74624;SDS011;63131;52.298;8.056;2023-08-20T14:02:46;7.73;;;3.20;;
74624;SDS011;63131;52.298;8.056;2023-08-20T14:05:11;7.72;;;4.13;;
74624;SDS011;63131;52.298;8.056;2023-08-20T14:07:37;7.83;;;3.10;;
74624;SDS011;63131;52.298;8.056;2023-08-20T14:10:02;8.87;;;3.93;;
74624;SDS011;63131;52.298;8.056;2023-08-20T14:12:29;9.00;;;3.88;;
74624;SDS011;63131;52.298;8.056;2023-08-20T14:14:54;7.83;;;3.57;;
74624;SDS011;63131;52.298;8.056;2023-08-20T14:17:19;7.43;;;3.93;;
74624;SDS011;63131;52.298;8.056;2023-08-20T14:19:44;8.03;;;2.80;;
74624;SDS011;63131;52.298;8.056;2023-08-20T14:22:09;6.90;;;3.10;;
74624;SDS011;63131;52.298;8.056;2023-08-20T14:24:35;8.33;;;3.20;;
74624;SDS011;63131;52.298;8.056;2023-08-20T14:27:00;7.60;;;2.83;;
74624;SDS011;63131;52.298;8.056;2023-08-20T14:29:25;7.20;;;3.70;;
74624;SDS011;63131;52.298;8.056;2023-08-20T14:31:50;8.57;;;3.97;;
74624;SDS011;63131;52.298;8.056;2023-08-20T14:34:15;6.63;;;3.13;;
74624;SDS011;63131;52.298;8.056;2023-08-20T14:36:41;7.93;;;2.87;;
74624;SDS011;63131;52.298;8.056;2023-08-20T14:39:06;8.00;;;3.43;;
74624;SDS011;63131;52.298;8.056;2023-08-20T14:41:31;9.53;;;3.50;;
74624;SDS011;63131;52.298;8.056;2023-08-20T14:43:56;7.67;;;3.10;;
74624;SDS011;63131;52.298;8.056;2023-08-20T14:46:21;8.13;;;3.30;;
74624;SDS011;63131;52.298;8.056;2023-08-20T14:48:47;6.87;;;3.17;;
74624;SDS011;63131;52.298;8.056;2023-08-20T14:51:13;7.53;;;3.60;;